Monday, February 19, 2018, 5:11 AM EST
Back to Local

KORE, Orange, Orange Municipal Airport

Location: Orange, MA, United States Lat: 42.572
Local Time: 5:11 AM EST (10:11 GMT) Lon: -72.278
Time Zone: US/Eastern Elev: 554 ft

Show me the last for .
Show Decoded

2018-02-19 04:52 METAR KORE 190952Z AUTO 00000KT 7SM FEW002 M10/M11 A3052 RMK AO2 SLP346
                 T11001111 =
2018-02-19 04:50 METAR KORE 190950Z AUTO 00000KT 3SM BR FEW002 M10/M11 A3052 RMK AO2 =
2018-02-19 04:48 METAR KORE 190948Z AUTO 00000KT 1 1/4SM BR FEW002 M10/M11 A3052 RMK AO2 =
2018-02-19 04:42 METAR KORE 190942Z AUTO 00000KT 1/2SM FZFG VV002 M10/M11 A3052 RMK AO2 T11001106
                 =
2018-02-19 04:34 METAR KORE 190934Z AUTO 00000KT 1SM BR VV002 M09/M10 A3051 RMK AO2 T10941100 =
2018-02-19 04:32 METAR KORE 190932Z AUTO 00000KT 1 3/4SM BR FEW002 M09/M09 A3051 RMK AO2
                 T10941094 =
2018-02-19 04:20 METAR KORE 190920Z AUTO 00000KT 3SM BR FEW002 M08/M09 A3051 RMK AO2 T10831094 =
2018-02-19 04:17 METAR KORE 190917Z AUTO 00000KT 1 1/2SM BR FEW002 M08/M10 A3051 RMK AO2
                 T10831100 =
2018-02-19 04:08 METAR KORE 190908Z AUTO 00000KT 3/4SM BR CLR M09/M11 A3051 RMK AO2 T10891106 =
2018-02-19 04:06 METAR KORE 190906Z AUTO 00000KT 1 1/2SM BR CLR M09/M11 A3051 RMK AO2 T10941106 =
2018-02-19 03:52 METAR KORE 190852Z AUTO 00000KT 5SM BR CLR M09/M09 A3051 RMK AO2 SLP339 I1000
                 I3001 T10891089 51002 =
2018-02-19 02:52 METAR KORE 190752Z AUTO 00000KT 6SM BR CLR M09/M09 A3050 RMK AO2 SLP338
                 T10891094 =
2018-02-19 02:18 METAR KORE 190718Z AUTO 00000KT 5SM BR CLR M08/M08 A3051 RMK AO2 T10781083 =
2018-02-19 02:09 METAR KORE 190709Z AUTO 00000KT 2SM BR CLR M08/M08 A3050 RMK AO2 T10781083 =
2018-02-19 01:52 METAR KORE 190652Z AUTO 00000KT 4SM BR CLR M08/M08 A3050 RMK AO2 SLP338 I1001
                 T10831083 =
2018-02-19 01:27 METAR KORE 190627Z AUTO 00000KT 4SM BR CLR M08/M09 A3051 RMK AO2 I1000 T10781089
                 =
2018-02-19 01:25 METAR KORE 190625Z AUTO 00000KT 1 1/2SM BR CLR M08/M09 A3050 RMK AO2 I1000
                 T10831089 =
2018-02-19 00:55 METAR KORE 190555Z AUTO 00000KT 3/4SM BR CLR M07/M07 A3050 RMK AO2 VIS 1/2V4
                 T10671072 =
2018-02-19 00:52 METAR KORE 190552Z AUTO 00000KT 1 1/4SM BR CLR M07/M08 A3050 RMK AO2 VIS 1/2V5
                 SLP336 I1000 I6001 T10671078 10011 21089 58002 =
2018-02-19 00:43 METAR KORE 190543Z AUTO 00000KT 2 1/2SM BR CLR M07/M08 A3051 RMK AO2 T10721078 =
2018-02-19 00:35 METAR KORE 190535Z AUTO 00000KT 4SM BR CLR M08/M08 A3051 RMK AO2 T10781083 =
2018-02-19 00:24 METAR KORE 190524Z AUTO 00000KT 2SM BR CLR M08/M08 A3051 RMK AO2 VIS 1 1/4V4
                 T10831083 =
2018-02-18 23:52 METAR KORE 190452Z AUTO 00000KT 9SM CLR M06/M07 A3051 RMK AO2 SLP339 I1001
                 T10611067 400501072 =
2018-02-18 22:52 METAR KORE 190352Z AUTO 22003KT 10SM CLR M06/M07 A3052 RMK AO2 SLP342 T10611067
                 =
2018-02-18 21:52 METAR KORE 190252Z AUTO 00000KT 10SM CLR M05/M06 A3050 RMK AO2 SLP338 T10501056
                 51026 =
2018-02-18 20:52 METAR KORE 190152Z AUTO 00000KT 10SM BKN043 M04/M06 A3049 RMK AO2 SLP334
                 T10391056 =
2018-02-18 19:52 METAR KORE 190052Z AUTO 28003KT 10SM CLR M01/M06 A3045 RMK AO2 SLP318 T10061061
                 =
2018-02-18 18:52 METAR KORE 182352Z AUTO 27005KT 10SM OVC040 01/M05 A3042 RMK AO2 SLP311
                 T00111050 10050 20006 51038 =
2018-02-18 17:52 METAR KORE 182252Z AUTO 28004KT 10SM BKN046 01/M06 A3040 RMK AO2 SLP301
                 T00111056 =
2018-02-18 16:52 METAR KORE 182152Z AUTO 29010KT 10SM FEW046 03/M06 A3035 RMK AO2 SLP285
                 T00281061 =
2018-02-18 15:52 METAR KORE 182052Z AUTO 27012KT 10SM SCT047 03/M06 A3031 RMK AO2 SLP271
                 T00331061 51030 =
2018-02-18 14:52 METAR KORE 181952Z AUTO 31014G19KT 10SM SCT048 04/M06 A3029 RMK AO2 SLP265
                 T00391061 =
2018-02-18 13:52 METAR KORE 181852Z AUTO 29007G14KT 10SM BKN049 04/M06 A3026 RMK AO2 SLP253
                 T00441061 =
2018-02-18 12:52 METAR KORE 181752Z AUTO 33012KT 10SM FEW047 03/M06 A3022 RMK AO2 SLP240
                 T00331061 10033 21033 53009 =
2018-02-18 11:52 METAR KORE 181652Z AUTO 33019G27KT 10SM CLR 02/M06 A3017 RMK AO2 PK WND
                 33027/1648 SLP224 T00221061 =
2018-02-18 10:52 METAR KORE 181552Z AUTO 33012KT 10SM SCT038 02/M05 A3021 RMK AO2 SLP235
                 T00171050 =
2018-02-18 09:52 METAR KORE 181452Z AUTO 30010G17KT 270V350 10SM CLR 01/M04 A3019 RMK AO2 PRESRR
                 SLP232 T00111039 53057 =
2018-02-18 08:52 METAR KORE 181352Z AUTO 33012G19KT 10SM SCT037 01/M03 A3013 RMK AO2 SLP209
                 T00061028 =
2018-02-18 07:52 METAR KORE 181252Z AUTO 30007KT 10SM CLR M02/M03 A3009 RMK AO2 PRESRR SLP196
                 T10171028 =
2018-02-18 06:52 METAR KORE 181152Z AUTO 29005KT 10SM CLR M03/M03 A3002 RMK AO2 SLP174 60014
                 70038 T10281033 11017 21028 53032 =
2018-02-18 05:52 METAR KORE 181052Z AUTO 31003KT 10SM OVC060 M02/M03 A2998 RMK AO2 SNE39 SLP160
                 P0001 T10221028 =
2018-02-18 05:15 METAR KORE 181015Z AUTO 00000KT 3SM -SN BR OVC036 M02/M02 A2996 RMK AO2 P0001
                 T10171017 =

Support USWX by starting your Amazon purchase here.